createdAt,value
2023-03-15T00:02:01.544Z,17.57
2023-03-15T00:04:28.678Z,21.30
2023-03-15T00:06:55.501Z,15.27
2023-03-15T00:09:22.319Z,17.13
2023-03-15T00:11:49.452Z,14.73
2023-03-15T00:14:16.287Z,18.17
2023-03-15T00:16:43.335Z,16.63
2023-03-15T00:19:11.053Z,15.43
2023-03-15T00:21:37.987Z,13.13
2023-03-15T00:24:04.922Z,14.83
2023-03-15T00:26:31.811Z,13.97
2023-03-15T00:28:59.512Z,14.47
2023-03-15T00:31:26.455Z,14.87
2023-03-15T00:33:56.429Z,13.20
2023-03-15T00:36:24.339Z,13.70
2023-03-15T00:38:53.497Z,14.63
2023-03-15T00:41:21.982Z,13.93
2023-03-15T00:43:49.577Z,13.00
2023-03-15T00:46:17.945Z,13.27
2023-03-15T00:48:48.677Z,13.37
2023-03-15T00:51:18.683Z,15.20
2023-03-15T00:53:46.945Z,14.20
2023-03-15T00:56:17.328Z,13.40
2023-03-15T00:58:44.875Z,13.13
2023-03-15T01:01:21.085Z,14.17
2023-03-15T01:03:48.383Z,13.00
2023-03-15T01:06:21.013Z,13.97
2023-03-15T01:08:48.277Z,12.20
2023-03-15T01:11:19.538Z,13.03
2023-03-15T01:13:46.788Z,11.90
2023-03-15T01:16:14.922Z,12.40
2023-03-15T01:18:43.749Z,11.53
2023-03-15T01:21:12.547Z,11.67
2023-03-15T01:23:40.021Z,11.23
2023-03-15T01:26:10.986Z,11.37
2023-03-15T01:28:37.849Z,10.93
2023-03-15T01:31:04.853Z,10.93
2023-03-15T01:33:32.278Z,10.83
2023-03-15T01:36:05.486Z,11.43
2023-03-15T01:38:33.748Z,11.30
2023-03-15T01:41:01.116Z,10.87
2023-03-15T01:43:31.908Z,10.50
2023-03-15T01:46:02.273Z,11.43
2023-03-15T01:48:52.291Z,11.90
2023-03-15T01:51:45.250Z,11.40
2023-03-15T01:54:29.681Z,11.27
2023-03-15T01:57:14.450Z,10.83
2023-03-15T01:59:48.174Z,11.63
2023-03-15T02:02:15.357Z,11.70
2023-03-15T02:04:52.816Z,10.10
2023-03-15T02:07:24.854Z,11.47
2023-03-15T02:10:05.439Z,12.23
2023-03-15T02:12:40.618Z,12.27
2023-03-15T02:15:09.505Z,11.60
2023-03-15T02:17:40.360Z,13.23
2023-03-15T02:20:07.826Z,11.90
2023-03-15T02:23:04.978Z,11.63
2023-03-15T02:25:55.129Z,12.20
2023-03-15T02:28:22.500Z,12.07
2023-03-15T02:30:50.125Z,12.53
2023-03-15T02:33:32.055Z,12.60
2023-03-15T02:36:10.174Z,12.87
2023-03-15T02:38:37.536Z,11.97
2023-03-15T02:41:05.277Z,12.83
2023-03-15T02:43:35.584Z,12.80
2023-03-15T02:46:03.707Z,11.80
2023-03-15T02:48:33.614Z,11.90
2023-03-15T02:51:02.069Z,12.80
2023-03-15T02:53:30.954Z,10.83
2023-03-15T02:55:58.496Z,12.17
2023-03-15T02:58:25.552Z,12.30
2023-03-15T03:00:53.810Z,11.47
2023-03-15T03:03:21.077Z,10.97
2023-03-15T03:05:48.098Z,12.07
2023-03-15T03:08:16.589Z,11.77
2023-03-15T03:10:44.021Z,11.50
2023-03-15T03:13:11.008Z,12.20
2023-03-15T03:15:39.789Z,12.13
2023-03-15T03:18:06.568Z,10.90
2023-03-15T03:20:33.705Z,12.40
2023-03-15T03:23:05.921Z,12.27
2023-03-15T03:25:33.562Z,12.00
2023-03-15T03:28:06.801Z,11.87
2023-03-15T03:30:36.036Z,12.47
2023-03-15T03:33:03.286Z,12.20
2023-03-15T03:35:32.351Z,13.27
2023-03-15T03:37:59.466Z,11.87
2023-03-15T03:40:32.818Z,13.63
2023-03-15T03:43:03.925Z,11.53
2023-03-15T03:45:31.317Z,12.33
2023-03-15T03:48:00.033Z,13.87
2023-03-15T03:50:27.879Z,12.90
2023-03-15T03:52:54.801Z,13.17
2023-03-15T03:55:26.555Z,12.73
2023-03-15T03:57:54.294Z,12.83
2023-03-15T04:00:38.870Z,12.70
2023-03-15T04:03:07.445Z,13.50
2023-03-15T04:05:36.683Z,13.33
2023-03-15T04:08:04.024Z,12.77
2023-03-15T04:10:36.396Z,12.80
2023-03-15T04:13:03.390Z,12.97
2023-03-15T04:15:31.416Z,13.00
2023-03-15T04:17:58.791Z,13.20
2023-03-15T04:20:35.167Z,12.97
2023-03-15T04:23:03.101Z,13.23
2023-03-15T04:26:08.358Z,13.40
2023-03-15T04:28:47.826Z,13.03
2023-03-15T04:31:37.714Z,13.13
2023-03-15T04:34:28.426Z,12.30
2023-03-15T04:37:13.739Z,13.80
2023-03-15T04:40:01.808Z,14.20
2023-03-15T04:42:44.504Z,13.00
2023-03-15T04:45:27.490Z,13.67
2023-03-15T04:48:13.109Z,13.47
2023-03-15T04:50:47.857Z,14.40
2023-03-15T04:53:33.060Z,13.40
2023-03-15T04:56:12.860Z,13.07
2023-03-15T04:58:46.443Z,13.50
2023-03-15T05:01:33.709Z,13.90
2023-03-15T05:04:13.431Z,13.80
2023-03-15T05:06:58.434Z,12.00
2023-03-15T05:09:48.463Z,13.73
2023-03-15T05:12:31.939Z,13.43
2023-03-15T05:15:18.186Z,13.77
2023-03-15T05:18:14.230Z,12.73
2023-03-15T05:20:59.595Z,13.83
2023-03-15T05:23:42.492Z,12.00
2023-03-15T05:26:31.120Z,13.23
2023-03-15T05:29:15.566Z,13.00
2023-03-15T05:32:06.493Z,12.63
2023-03-15T05:34:54.675Z,12.47
2023-03-15T05:37:40.755Z,14.20
2023-03-15T05:40:30.154Z,13.00
2023-03-15T05:43:35.463Z,13.83
2023-03-15T05:46:19.617Z,14.80
2023-03-15T05:49:15.179Z,13.43
2023-03-15T05:52:01.049Z,13.40
2023-03-15T05:54:47.083Z,12.90
2023-03-15T05:57:28.578Z,13.23
2023-03-15T06:00:20.710Z,13.60
2023-03-15T06:02:51.470Z,13.67
2023-03-15T06:05:32.909Z,12.77
2023-03-15T06:08:03.376Z,13.77
2023-03-15T06:10:30.908Z,13.50
2023-03-15T06:13:00.903Z,13.27
2023-03-15T06:15:28.021Z,13.07
2023-03-15T06:17:56.229Z,13.37
2023-03-15T06:20:23.094Z,12.50
2023-03-15T06:22:49.962Z,12.20
2023-03-15T06:25:28.900Z,11.90
2023-03-15T06:27:56.013Z,12.00
2023-03-15T06:30:26.002Z,14.13
2023-03-15T06:32:56.224Z,12.80
2023-03-15T06:35:23.315Z,12.63
2023-03-15T06:37:53.032Z,12.27
2023-03-15T06:40:20.118Z,13.20
2023-03-15T06:42:48.330Z,13.07
2023-03-15T06:45:17.608Z,11.80
2023-03-15T06:47:45.595Z,13.87
2023-03-15T06:50:13.336Z,13.63
2023-03-15T06:52:40.237Z,11.90
2023-03-15T06:55:07.907Z,12.67
2023-03-15T06:57:34.823Z,12.40
2023-03-15T07:00:01.643Z,12.37
2023-03-15T07:02:28.580Z,11.63
2023-03-15T07:04:55.331Z,12.00
2023-03-15T07:07:22.060Z,11.30
2023-03-15T07:09:48.850Z,12.57
2023-03-15T07:12:15.574Z,12.80
2023-03-15T07:14:42.362Z,12.73
2023-03-15T07:17:09.181Z,13.23
2023-03-15T07:19:41.380Z,13.60
2023-03-15T07:22:13.752Z,14.93
2023-03-15T07:24:40.711Z,13.97
2023-03-15T07:27:07.618Z,14.37
2023-03-15T07:29:34.430Z,14.53
2023-03-15T07:32:01.545Z,15.20
2023-03-15T07:34:28.385Z,13.67
2023-03-15T07:36:55.149Z,13.73
2023-03-15T07:39:23.319Z,13.67
2023-03-15T07:41:50.013Z,13.13
2023-03-15T07:44:31.924Z,12.63
2023-03-15T07:46:58.921Z,11.50
2023-03-15T07:49:25.906Z,13.17
2023-03-15T07:51:52.704Z,11.73
2023-03-15T07:54:20.205Z,11.50
2023-03-15T07:56:46.965Z,11.73
2023-03-15T07:59:13.804Z,11.40
2023-03-15T08:01:40.557Z,11.77
2023-03-15T08:04:07.347Z,10.83
2023-03-15T08:06:34.057Z,10.37
2023-03-15T08:09:04.306Z,10.10
2023-03-15T08:11:31.408Z,10.13
2023-03-15T08:13:58.274Z,10.50
2023-03-15T08:16:25.352Z,11.13
2023-03-15T08:18:52.109Z,10.47
2023-03-15T08:21:18.928Z,10.07
2023-03-15T08:23:45.667Z,10.30
2023-03-15T08:26:12.387Z,10.87
2023-03-15T08:28:39.089Z,11.47
2023-03-15T08:31:09.677Z,10.13
2023-03-15T08:33:36.446Z,10.57
2023-03-15T08:36:03.317Z,10.93
2023-03-15T08:38:30.104Z,10.53
2023-03-15T08:40:57.679Z,10.30
2023-03-15T08:43:24.709Z,10.23
2023-03-15T08:46:00.741Z,10.70
2023-03-15T08:48:28.104Z,10.03
2023-03-15T08:50:54.838Z,10.57
2023-03-15T08:53:21.569Z,10.00
2023-03-15T08:55:49.594Z,9.67
2023-03-15T08:58:16.385Z,10.90
2023-03-15T09:00:43.245Z,10.57
2023-03-15T09:03:11.304Z,10.63
2023-03-15T09:05:38.106Z,10.60
2023-03-15T09:08:05.020Z,10.87
2023-03-15T09:10:31.745Z,10.30
2023-03-15T09:12:58.456Z,9.43
2023-03-15T09:15:25.230Z,10.40
2023-03-15T09:17:52.327Z,10.13
2023-03-15T09:20:21.945Z,9.63
2023-03-15T09:22:53.703Z,11.27
2023-03-15T09:25:20.893Z,10.17
2023-03-15T09:27:48.146Z,10.63
2023-03-15T09:30:15.770Z,10.40
2023-03-15T09:32:44.178Z,10.70
2023-03-15T09:35:14.633Z,11.63
2023-03-15T09:37:42.574Z,9.83
2023-03-15T09:40:20.983Z,10.10
2023-03-15T09:42:59.998Z,9.50
2023-03-15T09:45:48.731Z,10.23
2023-03-15T09:48:25.622Z,10.33
2023-03-15T09:51:00.942Z,9.90
2023-03-15T09:53:47.017Z,9.30
2023-03-15T09:56:27.926Z,9.00
2023-03-15T09:58:58.478Z,9.00
2023-03-15T10:01:31.259Z,8.63
2023-03-15T10:03:58.484Z,8.77
2023-03-15T10:06:30.214Z,9.20
2023-03-15T10:08:59.629Z,9.73
2023-03-15T10:12:06.714Z,11.00
2023-03-15T10:15:27.634Z,8.60
2023-03-15T10:18:13.159Z,8.63
2023-03-15T10:20:49.584Z,9.20
2023-03-15T10:23:44.135Z,8.70
2023-03-15T10:26:15.458Z,8.57
2023-03-15T10:28:43.848Z,8.10
2023-03-15T10:31:36.878Z,7.90
2023-03-15T10:34:11.507Z,8.77
2023-03-15T10:36:44.120Z,8.73
2023-03-15T10:39:12.865Z,8.37
2023-03-15T10:41:45.685Z,7.80
2023-03-15T10:44:17.232Z,7.83
2023-03-15T10:47:04.613Z,7.80
2023-03-15T10:49:41.692Z,7.57
2023-03-15T10:52:25.440Z,8.30
2023-03-15T10:54:58.818Z,7.77
2023-03-15T10:57:37.120Z,7.93
2023-03-15T11:00:20.168Z,8.57
2023-03-15T11:02:52.343Z,7.93
2023-03-15T11:05:19.988Z,8.37
2023-03-15T11:07:55.714Z,8.10
2023-03-15T11:10:28.412Z,8.40
2023-03-15T11:13:22.233Z,8.27
2023-03-15T11:16:13.993Z,9.37
2023-03-15T11:18:48.973Z,8.00
2023-03-15T11:21:17.552Z,6.93
2023-03-15T11:23:47.892Z,7.40
2023-03-15T11:26:32.334Z,7.63
2023-03-15T11:29:04.099Z,8.10
2023-03-15T11:31:31.290Z,8.53
2023-03-15T11:34:09.141Z,7.90
2023-03-15T11:36:41.307Z,7.80
2023-03-15T11:39:13.821Z,8.10
2023-03-15T11:41:52.645Z,7.67
2023-03-15T11:44:50.418Z,7.30
2023-03-15T11:47:59.651Z,8.07
2023-03-15T11:50:26.408Z,7.40
2023-03-15T11:52:53.836Z,7.40
2023-03-15T11:55:28.901Z,7.22
2023-03-15T11:57:58.012Z,6.85
2023-03-15T12:00:26.821Z,7.20
2023-03-15T12:02:54.986Z,6.63
2023-03-15T12:05:45.107Z,8.88
2023-03-15T12:08:34.527Z,6.88
2023-03-15T12:11:02.066Z,12.40
2023-03-15T12:13:31.474Z,11.23
2023-03-15T12:15:59.185Z,12.48
2023-03-15T12:18:31.121Z,11.80
2023-03-15T12:21:10.990Z,11.77
2023-03-15T12:23:46.465Z,11.52
2023-03-15T12:26:25.430Z,11.90
2023-03-15T12:29:01.082Z,12.38
2023-03-15T12:31:50.772Z,12.25
2023-03-15T12:34:24.564Z,12.45
2023-03-15T12:36:55.475Z,12.88
2023-03-15T12:39:43.968Z,12.98
2023-03-15T12:42:36.785Z,12.80
2023-03-15T12:45:15.520Z,26.08
2023-03-15T12:48:12.971Z,17.58
2023-03-15T12:50:45.884Z,14.32
2023-03-15T12:53:22.585Z,15.38
2023-03-15T12:55:54.108Z,15.20
2023-03-15T12:58:36.236Z,15.73
2023-03-15T13:01:05.883Z,14.52
2023-03-15T13:03:35.954Z,13.35
2023-03-15T13:06:33.395Z,15.70
2023-03-15T13:09:14.722Z,14.98
2023-03-15T13:11:53.808Z,14.95
2023-03-15T13:14:38.584Z,27.05
2023-03-15T13:17:10.128Z,999.90
2023-03-15T13:19:49.970Z,26.30
2023-03-15T13:22:31.379Z,10.27
2023-03-15T13:25:01.025Z,11.50
2023-03-15T13:27:39.910Z,13.73
2023-03-15T13:30:45.466Z,201.50
2023-03-15T13:33:28.162Z,27.23
2023-03-15T13:36:04.242Z,33.03
2023-03-15T13:38:51.630Z,50.57
2023-03-15T13:41:38.898Z,50.63
2023-03-15T13:44:23.665Z,51.63
2023-03-15T13:46:52.066Z,55.07
2023-03-15T13:49:19.770Z,52.87
2023-03-15T13:51:48.843Z,51.10
2023-03-15T13:54:26.571Z,209.73
2023-03-15T13:57:19.381Z,211.07
2023-03-15T13:59:53.403Z,133.60
2023-03-15T14:02:33.036Z,88.00
2023-03-15T14:05:05.311Z,124.00
2023-03-15T14:07:45.367Z,118.20
2023-03-15T14:11:06.811Z,155.03
2023-03-15T14:13:36.025Z,999.90
2023-03-15T14:16:06.459Z,999.90
2023-03-15T14:18:39.471Z,999.90
2023-03-15T14:21:08.093Z,999.90
2023-03-15T14:23:48.218Z,999.90
2023-03-15T14:26:18.013Z,999.90
2023-03-15T14:29:00.127Z,999.90
2023-03-15T14:31:32.696Z,999.90
2023-03-15T14:34:23.658Z,999.90
2023-03-15T14:36:54.045Z,999.90
2023-03-15T14:39:27.826Z,999.90
2023-03-15T14:41:54.911Z,999.90
2023-03-15T14:44:21.821Z,999.90
2023-03-15T14:46:49.274Z,999.90
2023-03-15T14:49:27.499Z,999.90
2023-03-15T14:52:02.315Z,999.90
2023-03-15T14:54:30.733Z,999.90
2023-03-15T14:56:57.714Z,999.90
2023-03-15T14:59:24.686Z,999.90
2023-03-15T15:01:58.394Z,999.90
2023-03-15T15:04:29.759Z,999.90
2023-03-15T15:06:56.506Z,999.90
2023-03-15T15:09:26.359Z,999.90
2023-03-15T15:11:54.109Z,999.90
2023-03-15T15:14:21.980Z,999.90
2023-03-15T15:16:49.665Z,999.90
2023-03-15T15:19:16.694Z,999.90
2023-03-15T15:21:44.140Z,999.90
2023-03-15T15:24:17.171Z,999.90
2023-03-15T15:26:44.197Z,999.90
2023-03-15T15:29:15.819Z,999.90
2023-03-15T15:31:43.399Z,999.90
2023-03-15T15:34:11.428Z,999.90
2023-03-15T15:36:43.544Z,999.90
2023-03-15T15:39:27.386Z,999.90
2023-03-15T15:41:54.147Z,999.90
2023-03-15T15:44:23.892Z,999.90
2023-03-15T15:46:50.783Z,999.90
2023-03-15T15:49:19.364Z,999.90
2023-03-15T15:51:49.450Z,999.90
2023-03-15T15:54:27.548Z,999.90
2023-03-15T15:56:56.916Z,999.90
2023-03-15T15:59:27.111Z,999.90
2023-03-15T16:02:02.936Z,999.90
2023-03-15T16:04:30.595Z,999.90
2023-03-15T16:07:01.359Z,999.90
2023-03-15T16:09:30.490Z,999.90
2023-03-15T16:11:57.445Z,999.90
2023-03-15T16:14:24.183Z,999.90
2023-03-15T16:16:50.984Z,999.90
2023-03-15T16:19:17.796Z,999.90
2023-03-15T16:21:47.743Z,999.90
2023-03-15T16:24:19.439Z,999.90
2023-03-15T16:26:47.758Z,999.90
2023-03-15T16:29:26.901Z,999.90
2023-03-15T16:31:54.718Z,999.90
2023-03-15T16:34:26.003Z,999.90
2023-03-15T16:36:55.757Z,999.90
2023-03-15T16:39:22.858Z,999.90
2023-03-15T16:41:52.041Z,999.90
2023-03-15T16:44:20.804Z,999.90
2023-03-15T16:46:48.757Z,999.90
2023-03-15T16:49:15.812Z,999.90
2023-03-15T16:51:47.177Z,999.90
2023-03-15T16:54:22.014Z,999.90
2023-03-15T16:56:54.809Z,999.90
2023-03-15T16:59:21.990Z,999.90
2023-03-15T17:01:50.391Z,999.90
2023-03-15T17:04:17.494Z,999.90
2023-03-15T17:06:46.300Z,999.90
2023-03-15T17:09:20.312Z,999.90
2023-03-15T17:11:48.901Z,999.90
2023-03-15T17:14:20.915Z,999.90
2023-03-15T17:16:48.220Z,999.90
2023-03-15T17:19:15.540Z,999.90
2023-03-15T17:21:44.375Z,999.90
2023-03-15T17:24:12.103Z,999.90
2023-03-15T17:26:40.629Z,999.90
2023-03-15T17:29:08.548Z,999.90
2023-03-15T17:31:36.555Z,999.90
2023-03-15T17:34:04.068Z,999.90
2023-03-15T17:36:38.570Z,999.90
2023-03-15T17:39:07.487Z,999.90
2023-03-15T17:41:38.231Z,999.90
2023-03-15T17:44:05.280Z,999.90
2023-03-15T17:46:33.206Z,999.90
2023-03-15T17:49:02.744Z,999.90
2023-03-15T17:51:32.834Z,999.90
2023-03-15T17:54:00.176Z,999.90
2023-03-15T17:56:28.945Z,999.90
2023-03-15T17:58:56.449Z,999.90
2023-03-15T18:01:27.602Z,999.90
2023-03-15T18:03:56.166Z,999.90
2023-03-15T18:06:24.327Z,999.90
2023-03-15T18:08:51.839Z,999.90
2023-03-15T18:11:36.033Z,999.90
2023-03-15T18:14:06.163Z,999.90
2023-03-15T18:16:33.256Z,999.90
2023-03-15T18:19:00.392Z,999.90
2023-03-15T18:21:28.282Z,999.90
2023-03-15T18:23:55.401Z,999.90
2023-03-15T18:26:22.877Z,999.90
2023-03-15T18:28:50.068Z,999.90
2023-03-15T18:31:20.038Z,999.90
2023-03-15T18:33:47.994Z,999.90
2023-03-15T18:36:15.042Z,999.90
2023-03-15T18:38:42.119Z,999.90
2023-03-15T18:41:24.770Z,999.90
2023-03-15T18:43:52.223Z,999.90
2023-03-15T18:46:27.005Z,999.90
2023-03-15T18:48:54.320Z,999.90
2023-03-15T18:51:25.107Z,999.90
2023-03-15T18:53:52.331Z,999.90
2023-03-15T18:56:22.419Z,999.90
2023-03-15T18:58:50.796Z,999.90
2023-03-15T19:01:19.095Z,999.90
2023-03-15T19:03:46.151Z,999.90
2023-03-15T19:06:13.281Z,999.90
2023-03-15T19:08:40.531Z,999.90
2023-03-15T19:11:08.456Z,999.90
2023-03-15T19:13:35.511Z,999.90
2023-03-15T19:16:03.508Z,999.90
2023-03-15T19:18:32.437Z,999.90
2023-03-15T19:20:59.752Z,999.90
2023-03-15T19:23:27.334Z,999.90
2023-03-15T19:25:54.688Z,999.90
2023-03-15T19:28:21.437Z,999.90
2023-03-15T19:30:49.238Z,999.90
2023-03-15T19:33:16.247Z,999.90
2023-03-15T19:35:42.989Z,999.90
2023-03-15T19:38:09.771Z,999.90
2023-03-15T19:40:37.255Z,999.90
2023-03-15T19:43:04.416Z,999.90
2023-03-15T19:45:31.447Z,999.90
2023-03-15T19:47:58.248Z,999.90
2023-03-15T19:50:25.027Z,999.90
2023-03-15T19:52:51.842Z,999.90
2023-03-15T19:55:20.691Z,999.90
2023-03-15T19:57:47.957Z,999.90
2023-03-15T20:00:16.330Z,999.90
2023-03-15T20:02:44.399Z,999.90
2023-03-15T20:05:14.883Z,999.90
2023-03-15T20:07:44.796Z,999.90
2023-03-15T20:10:12.700Z,999.90
2023-03-15T20:12:42.441Z,999.90
2023-03-15T20:15:11.275Z,999.90
2023-03-15T20:17:38.347Z,999.90
2023-03-15T20:20:09.393Z,999.90
2023-03-15T20:22:37.529Z,999.90
2023-03-15T20:25:05.639Z,999.90
2023-03-15T20:27:33.620Z,999.90
2023-03-15T20:30:03.247Z,999.90
2023-03-15T20:32:30.578Z,999.90
2023-03-15T20:34:57.472Z,999.90
2023-03-15T20:37:25.580Z,999.90
2023-03-15T20:39:52.396Z,999.90
2023-03-15T20:42:21.911Z,999.90
2023-03-15T20:44:48.842Z,999.90
2023-03-15T20:47:16.045Z,999.90
2023-03-15T20:49:43.358Z,999.90
2023-03-15T20:52:11.593Z,999.90
2023-03-15T20:54:38.317Z,999.90
2023-03-15T20:57:07.080Z,999.90
2023-03-15T20:59:34.376Z,999.90
2023-03-15T21:02:02.977Z,999.90
2023-03-15T21:04:30.761Z,999.90
2023-03-15T21:07:06.894Z,999.90
2023-03-15T21:09:34.216Z,999.90
2023-03-15T21:12:01.527Z,999.90
2023-03-15T21:14:28.839Z,999.90
2023-03-15T21:16:56.528Z,999.90
2023-03-15T21:19:26.060Z,999.90
2023-03-15T21:21:53.340Z,999.90
2023-03-15T21:24:20.504Z,999.90
2023-03-15T21:26:49.264Z,999.90
2023-03-15T21:29:16.444Z,999.90
2023-03-15T21:31:46.567Z,999.90
2023-03-15T21:34:13.874Z,999.90
2023-03-15T21:36:41.297Z,999.90
2023-03-15T21:39:08.516Z,999.90
2023-03-15T21:41:35.706Z,999.90
2023-03-15T21:44:02.947Z,999.90
2023-03-15T21:46:30.116Z,999.90
2023-03-15T21:48:57.326Z,999.90
2023-03-15T21:51:24.525Z,999.90
2023-03-15T21:53:51.450Z,999.90
2023-03-15T21:56:18.234Z,999.90
2023-03-15T21:58:44.974Z,999.90
2023-03-15T22:01:13.973Z,999.90
2023-03-15T22:03:42.435Z,999.90
2023-03-15T22:06:09.215Z,999.90
2023-03-15T22:08:35.977Z,999.90
2023-03-15T22:11:04.535Z,999.90
2023-03-15T22:13:31.339Z,999.90
2023-03-15T22:15:59.564Z,999.90
2023-03-15T22:18:29.871Z,999.90
2023-03-15T22:20:57.068Z,999.90
2023-03-15T22:23:23.931Z,999.90
2023-03-15T22:25:52.853Z,999.90
2023-03-15T22:28:20.501Z,999.90
2023-03-15T22:30:49.142Z,999.90
2023-03-15T22:33:17.092Z,999.90
2023-03-15T22:35:44.004Z,999.90
2023-03-15T22:38:10.789Z,999.90
2023-03-15T22:40:39.799Z,999.90
2023-03-15T22:43:08.273Z,999.90
2023-03-15T22:45:35.090Z,999.90
2023-03-15T22:48:02.086Z,999.90
2023-03-15T22:50:28.921Z,999.90
2023-03-15T22:52:55.752Z,999.90
2023-03-15T22:55:22.945Z,999.90
2023-03-15T22:57:49.677Z,999.90
2023-03-15T23:00:20.759Z,999.90
2023-03-15T23:02:47.818Z,999.90
2023-03-15T23:05:14.685Z,999.90
2023-03-15T23:07:41.523Z,999.90
2023-03-15T23:10:08.935Z,999.90
2023-03-15T23:12:36.703Z,999.90
2023-03-15T23:15:04.654Z,999.90
2023-03-15T23:17:31.684Z,999.90
2023-03-15T23:19:58.484Z,999.90
2023-03-15T23:22:25.302Z,999.90
2023-03-15T23:24:52.039Z,999.90
2023-03-15T23:27:18.863Z,999.90
2023-03-15T23:29:54.137Z,999.90
2023-03-15T23:32:21.655Z,999.90
2023-03-15T23:34:48.471Z,999.90
2023-03-15T23:37:15.434Z,999.90
2023-03-15T23:39:42.762Z,999.90
2023-03-15T23:42:10.417Z,999.90
2023-03-15T23:44:37.483Z,999.90
2023-03-15T23:47:05.682Z,999.90
2023-03-15T23:49:33.716Z,999.90
2023-03-15T23:52:05.522Z,999.90
2023-03-15T23:54:39.721Z,999.90
2023-03-15T23:57:11.883Z,999.90
2023-03-15T23:59:40.542Z,999.90
